sensor_id;sensor_type;location;lat;lon;timestamp;pressure;altitude;pressure_sealevel;temperature;humidity
43217;BME280;71549;42.686;23.300;2024-03-17T00:00:36;94950.97;;;21.53;33.90
43217;BME280;71549;42.686;23.300;2024-03-17T00:02:40;94955.72;;;21.56;33.92
43217;BME280;71549;42.686;23.300;2024-03-17T00:04:43;94950.53;;;21.51;33.85
43217;BME280;71549;42.686;23.300;2024-03-17T00:06:45;94955.72;;;21.56;33.58
43217;BME280;71549;42.686;23.300;2024-03-17T00:08:46;94957.28;;;21.57;33.61
43217;BME280;71549;42.686;23.300;2024-03-17T00:10:50;94952.56;;;21.54;33.76
43217;BME280;71549;42.686;23.300;2024-03-17T00:12:52;94947.97;;;21.55;33.57
43217;BME280;71549;42.686;23.300;2024-03-17T00:14:54;94946.84;;;21.56;33.86
43217;BME280;71549;42.686;23.300;2024-03-17T00:16:55;94955.72;;;21.56;33.70
43217;BME280;71549;42.686;23.300;2024-03-17T00:18:58;94955.38;;;21.58;33.82
43217;BME280;71549;42.686;23.300;2024-03-17T00:21:02;94954.13;;;21.55;33.82
43217;BME280;71549;42.686;23.300;2024-03-17T00:23:04;94951.44;;;21.55;33.68
43217;BME280;71549;42.686;23.300;2024-03-17T00:25:07;94953.34;;;21.55;33.90
43217;BME280;71549;42.686;23.300;2024-03-17T00:27:10;94953.81;;;21.57;33.93
43217;BME280;71549;42.686;23.300;2024-03-17T00:29:12;94948.28;;;21.53;33.77
43217;BME280;71549;42.686;23.300;2024-03-17T00:31:15;94948.75;;;21.55;33.79
43217;BME280;71549;42.686;23.300;2024-03-17T00:33:16;94946.72;;;21.52;33.55
43217;BME280;71549;42.686;23.300;2024-03-17T00:35:19;94946.72;;;21.52;33.63
43217;BME280;71549;42.686;23.300;2024-03-17T00:37:22;94938.06;;;21.46;33.47
43217;BME280;71549;42.686;23.300;2024-03-17T00:39:24;94936.41;;;21.54;33.69
43217;BME280;71549;42.686;23.300;2024-03-17T00:41:26;94942.56;;;21.55;33.54
43217;BME280;71549;42.686;23.300;2024-03-17T00:43:28;94944.47;;;21.54;33.92
43217;BME280;71549;42.686;23.300;2024-03-17T00:45:29;94946.41;;;21.54;33.79
43217;BME280;71549;42.686;23.300;2024-03-17T00:47:31;94945.25;;;21.55;33.91
43217;BME280;71549;42.686;23.300;2024-03-17T00:49:32;94945.59;;;21.53;33.33
43217;BME280;71549;42.686;23.300;2024-03-17T00:51:34;94941.34;;;21.52;33.65
43217;BME280;71549;42.686;23.300;2024-03-17T00:53:36;94950.19;;;21.53;33.71
43217;BME280;71549;42.686;23.300;2024-03-17T00:55:38;94949.41;;;21.52;33.63
43217;BME280;71549;42.686;23.300;2024-03-17T00:57:40;94946.72;;;21.52;33.83
43217;BME280;71549;42.686;23.300;2024-03-17T00:59:42;94950.97;;;21.53;33.78
43217;BME280;71549;42.686;23.300;2024-03-17T01:01:44;94946.41;;;21.54;33.55
43217;BME280;71549;42.686;23.300;2024-03-17T01:03:47;94947.50;;;21.53;33.50
43217;BME280;71549;42.686;23.300;2024-03-17T01:05:48;94945.59;;;21.53;33.69
43217;BME280;71549;42.686;23.300;2024-03-17T01:07:53;94952.88;;;21.53;33.69
43217;BME280;71549;42.686;23.300;2024-03-17T01:09:55;94957.50;;;21.52;33.67
43217;BME280;71549;42.686;23.300;2024-03-17T01:11:57;94953.56;;;21.50;33.68
43217;BME280;71549;42.686;23.300;2024-03-17T01:13:58;94949.75;;;21.51;33.86
43217;BME280;71549;42.686;23.300;2024-03-17T01:16:00;94940.56;;;21.52;33.70
43217;BME280;71549;42.686;23.300;2024-03-17T01:18:01;94950.53;;;21.51;33.84
43217;BME280;71549;42.686;23.300;2024-03-17T01:20:04;94949.75;;;21.51;33.79
43217;BME280;71549;42.686;23.300;2024-03-17T01:22:05;94933.66;;;21.42;33.62
43217;BME280;71549;42.686;23.300;2024-03-17T01:24:07;94954.81;;;21.52;33.60
43217;BME280;71549;42.686;23.300;2024-03-17T01:26:10;94951.31;;;21.52;33.44
43217;BME280;71549;42.686;23.300;2024-03-17T01:28:12;94956.72;;;21.52;33.45
43217;BME280;71549;42.686;23.300;2024-03-17T01:30:13;94948.97;;;21.50;33.54
43217;BME280;71549;42.686;23.300;2024-03-17T01:32:15;94946.91;;;21.47;33.67
43217;BME280;71549;42.686;23.300;2024-03-17T01:34:16;94950.41;;;21.48;33.67
43217;BME280;71549;42.686;23.300;2024-03-17T01:36:18;94946.13;;;21.46;33.73
43217;BME280;71549;42.686;23.300;2024-03-17T01:38:19;94946.13;;;21.46;33.66
43217;BME280;71549;42.686;23.300;2024-03-17T01:40:21;94946.13;;;21.46;33.82
43217;BME280;71549;42.686;23.300;2024-03-17T01:42:24;94942.34;;;21.48;33.50
43217;BME280;71549;42.686;23.300;2024-03-17T01:44:27;94948.84;;;21.46;33.38
43217;BME280;71549;42.686;23.300;2024-03-17T01:46:28;94945.81;;;21.48;33.41
43217;BME280;71549;42.686;23.300;2024-03-17T01:48:30;94946.91;;;21.47;33.58
43217;BME280;71549;42.686;23.300;2024-03-17T01:50:35;94945.69;;;21.44;33.36
43217;BME280;71549;42.686;23.300;2024-03-17T01:52:38;94949.63;;;21.47;33.75
43217;BME280;71549;42.686;23.300;2024-03-17T01:54:39;94955.00;;;21.47;33.33
43217;BME280;71549;42.686;23.300;2024-03-17T01:56:42;94946.91;;;21.47;33.50
43217;BME280;71549;42.686;23.300;2024-03-17T01:58:45;94945.34;;;21.46;33.82
43217;BME280;71549;42.686;23.300;2024-03-17T02:00:47;94948.06;;;21.46;33.62
43217;BME280;71549;42.686;23.300;2024-03-17T02:02:48;94944.13;;;21.43;33.62
43217;BME280;71549;42.686;23.300;2024-03-17T02:04:51;94940.75;;;21.46;33.76
43217;BME280;71549;42.686;23.300;2024-03-17T02:06:53;94944.22;;;21.47;33.25
43217;BME280;71549;42.686;23.300;2024-03-17T02:08:55;94948.06;;;21.46;33.44
43217;BME280;71549;42.686;23.300;2024-03-17T02:10:57;94943.44;;;21.46;33.61
43217;BME280;71549;42.686;23.300;2024-03-17T02:12:59;94946.47;;;21.45;33.37
43217;BME280;71549;42.686;23.300;2024-03-17T02:15:02;94947.28;;;21.45;33.50
43217;BME280;71549;42.686;23.300;2024-03-17T02:17:05;94941.88;;;21.45;33.70
43217;BME280;71549;42.686;23.300;2024-03-17T02:19:06;94948.38;;;21.44;33.46
43217;BME280;71549;42.686;23.300;2024-03-17T02:21:07;94938.75;;;21.43;33.61
43217;BME280;71549;42.686;23.300;2024-03-17T02:23:11;94944.59;;;21.45;33.52
43217;BME280;71549;42.686;23.300;2024-03-17T02:25:12;94946.47;;;21.45;33.62
43217;BME280;71549;42.686;23.300;2024-03-17T02:27:14;94941.06;;;21.45;33.66
43217;BME280;71549;42.686;23.300;2024-03-17T02:29:15;94947.28;;;21.45;33.68
43217;BME280;71549;42.686;23.300;2024-03-17T02:31:17;94944.59;;;21.45;33.82
43217;BME280;71549;42.686;23.300;2024-03-17T02:33:18;94947.28;;;21.45;33.83
43217;BME280;71549;42.686;23.300;2024-03-17T02:35:23;94946.47;;;21.45;33.48
43217;BME280;71549;42.686;23.300;2024-03-17T02:37:25;94943.78;;;21.45;33.81
43217;BME280;71549;42.686;23.300;2024-03-17T02:39:29;94939.19;;;21.45;33.39
43217;BME280;71549;42.686;23.300;2024-03-17T02:41:34;94939.19;;;21.45;33.70
43217;BME280;71549;42.686;23.300;2024-03-17T02:43:36;94940.75;;;21.46;33.51
43217;BME280;71549;42.686;23.300;2024-03-17T02:45:37;94944.59;;;21.45;33.79
43217;BME280;71549;42.686;23.300;2024-03-17T02:47:40;94944.91;;;21.44;33.39
43217;BME280;71549;42.686;23.300;2024-03-17T02:49:42;94936.81;;;21.44;33.54
43217;BME280;71549;42.686;23.300;2024-03-17T02:51:45;94929.53;;;21.44;33.47
43217;BME280;71549;42.686;23.300;2024-03-17T02:53:48;94890.03;;;21.15;33.66
43217;BME280;71549;42.686;23.300;2024-03-17T02:55:52;94937.94;;;21.43;33.60
43217;BME280;71549;42.686;23.300;2024-03-17T02:57:54;94908.47;;;21.25;33.71
43217;BME280;71549;42.686;23.300;2024-03-17T02:59:56;94935.56;;;21.41;33.53
43217;BME280;71549;42.686;23.300;2024-03-17T03:01:58;94929.53;;;21.44;33.66
43217;BME280;71549;42.686;23.300;2024-03-17T03:04:01;94936.03;;;21.43;33.42
43217;BME280;71549;42.686;23.300;2024-03-17T03:06:03;94928.75;;;21.44;33.77
43217;BME280;71549;42.686;23.300;2024-03-17T03:08:07;94931.44;;;21.44;33.59
43217;BME280;71549;42.686;23.300;2024-03-17T03:10:09;94929.84;;;21.43;33.35
43217;BME280;71549;42.686;23.300;2024-03-17T03:12:13;94925.28;;;21.43;33.40
43217;BME280;71549;42.686;23.300;2024-03-17T03:14:14;94907.47;;;21.30;33.47
43217;BME280;71549;42.686;23.300;2024-03-17T03:16:16;94932.53;;;21.43;33.76
43217;BME280;71549;42.686;23.300;2024-03-17T03:18:18;94929.06;;;21.42;33.45
43217;BME280;71549;42.686;23.300;2024-03-17T03:20:20;94927.47;;;21.41;33.72
43217;BME280;71549;42.686;23.300;2024-03-17T03:22:23;94924.78;;;21.41;33.64
43217;BME280;71549;42.686;23.300;2024-03-17T03:24:25;94925.56;;;21.42;33.78
43217;BME280;71549;42.686;23.300;2024-03-17T03:26:27;94930.19;;;21.41;33.76
43217;BME280;71549;42.686;23.300;2024-03-17T03:28:32;94923.97;;;21.41;33.47
43217;BME280;71549;42.686;23.300;2024-03-17T03:30:35;94935.56;;;21.41;33.46
43217;BME280;71549;42.686;23.300;2024-03-17T03:32:37;94936.34;;;21.42;33.62
43217;BME280;71549;42.686;23.300;2024-03-17T03:34:39;94938.25;;;21.41;33.49
43217;BME280;71549;42.686;23.300;2024-03-17T03:36:41;94933.97;;;21.40;33.57
43217;BME280;71549;42.686;23.300;2024-03-17T03:38:43;94933.19;;;21.40;33.34
43217;BME280;71549;42.686;23.300;2024-03-17T03:40:44;94933.97;;;21.40;33.74
43217;BME280;71549;42.686;23.300;2024-03-17T03:42:48;94933.19;;;21.40;33.68
43217;BME280;71549;42.686;23.300;2024-03-17T03:44:51;94936.66;;;21.40;33.78
43217;BME280;71549;42.686;23.300;2024-03-17T03:46:53;94941.72;;;21.42;33.92
43217;BME280;71549;42.686;23.300;2024-03-17T03:48:58;94940.34;;;21.36;33.61
43217;BME280;71549;42.686;23.300;2024-03-17T03:51:03;94943.97;;;21.40;33.47
43217;BME280;71549;42.686;23.300;2024-03-17T03:53:06;94950.91;;;21.41;33.83
43217;BME280;71549;42.686;23.300;2024-03-17T03:55:09;94954.41;;;21.41;33.82
43217;BME280;71549;42.686;23.300;2024-03-17T03:57:12;94956.28;;;21.41;33.53
43217;BME280;71549;42.686;23.300;2024-03-17T03:59:14;94953.59;;;21.41;33.46
43217;BME280;71549;42.686;23.300;2024-03-17T04:01:17;94952.81;;;21.40;33.86
43217;BME280;71549;42.686;23.300;2024-03-17T04:03:23;94953.94;;;21.39;33.59
43217;BME280;71549;42.686;23.300;2024-03-17T04:05:25;94958.97;;;21.41;33.89
43217;BME280;71549;42.686;23.300;2024-03-17T04:07:27;94957.44;;;21.40;33.52
43217;BME280;71549;42.686;23.300;2024-03-17T04:09:29;94960.91;;;21.40;33.50
43217;BME280;71549;42.686;23.300;2024-03-17T04:11:32;94965.19;;;21.41;33.37
43217;BME280;71549;42.686;23.300;2024-03-17T04:13:34;94962.34;;;21.38;33.49
43217;BME280;71549;42.686;23.300;2024-03-17T04:15:35;94966.59;;;21.39;33.75
43217;BME280;71549;42.686;23.300;2024-03-17T04:17:39;94969.31;;;21.39;33.82
43217;BME280;71549;42.686;23.300;2024-03-17T04:19:42;94969.31;;;21.39;33.64
43217;BME280;71549;42.686;23.300;2024-03-17T04:21:44;94974.69;;;21.39;33.65
43217;BME280;71549;42.686;23.300;2024-03-17T04:23:47;94978.50;;;21.38;33.62
43217;BME280;71549;42.686;23.300;2024-03-17T04:25:51;94981.19;;;21.38;33.49
43217;BME280;71549;42.686;23.300;2024-03-17T04:27:53;94972.34;;;21.37;33.39
43217;BME280;71549;42.686;23.300;2024-03-17T04:29:56;94970.44;;;21.38;33.72
43217;BME280;71549;42.686;23.300;2024-03-17T04:31:57;94977.72;;;21.37;33.67
43217;BME280;71549;42.686;23.300;2024-03-17T04:34:02;94989.59;;;21.36;33.70
43217;BME280;71549;42.686;23.300;2024-03-17T04:36:04;94983.91;;;21.38;33.92
43217;BME280;71549;42.686;23.300;2024-03-17T04:38:07;94990.06;;;21.38;33.35
43217;BME280;71549;42.686;23.300;2024-03-17T04:40:10;94988.81;;;21.36;33.66
43217;BME280;71549;42.686;23.300;2024-03-17T04:42:13;94992.28;;;21.36;33.67
43217;BME280;71549;42.686;23.300;2024-03-17T04:44:15;94992.16;;;21.33;33.69
43217;BME280;71549;42.686;23.300;2024-03-17T04:46:16;94990.72;;;21.35;33.73
43217;BME280;71549;42.686;23.300;2024-03-17T04:48:19;94994.66;;;21.38;33.74
43217;BME280;71549;42.686;23.300;2024-03-17T04:50:22;95001.97;;;21.37;33.42
43217;BME280;71549;42.686;23.300;2024-03-17T04:52:23;94997.34;;;21.38;33.73
43217;BME280;71549;42.686;23.300;2024-03-17T04:54:26;95006.53;;;21.37;33.45
43217;BME280;71549;42.686;23.300;2024-03-17T04:56:28;95012.72;;;21.37;33.45
43217;BME280;71549;42.686;23.300;2024-03-17T04:58:29;95011.59;;;21.38;33.65
43217;BME280;71549;42.686;23.300;2024-03-17T05:00:31;95012.72;;;21.37;33.71
43217;BME280;71549;42.686;23.300;2024-03-17T05:02:32;95018.13;;;21.37;33.49
43217;BME280;71549;42.686;23.300;2024-03-17T05:04:34;95017.78;;;21.39;33.50
43217;BME280;71549;42.686;23.300;2024-03-17T05:06:37;95018.91;;;21.38;33.79
43217;BME280;71549;42.686;23.300;2024-03-17T05:08:39;95021.13;;;21.36;33.75
43217;BME280;71549;42.686;23.300;2024-03-17T05:10:40;95023.97;;;21.39;33.52
43217;BME280;71549;42.686;23.300;2024-03-17T05:12:43;95029.66;;;21.38;33.72
43217;BME280;71549;42.686;23.300;2024-03-17T05:14:45;95020.69;;;21.34;33.72
43217;BME280;71549;42.686;23.300;2024-03-17T05:16:48;95035.84;;;21.38;33.70
43217;BME280;71549;42.686;23.300;2024-03-17T05:18:50;95025.75;;;21.35;33.80
43217;BME280;71549;42.686;23.300;2024-03-17T05:21:03;95027.63;;;21.35;33.80
43217;BME280;71549;42.686;23.300;2024-03-17T05:23:07;95033.91;;;21.39;33.72
43217;BME280;71549;42.686;23.300;2024-03-17T05:25:08;95035.19;;;21.41;33.65
43217;BME280;71549;42.686;23.300;2024-03-17T05:27:11;95036.28;;;21.40;33.74
43217;BME280;71549;42.686;23.300;2024-03-17T05:29:11;95030.78;;;21.37;33.67
43217;BME280;71549;42.686;23.300;2024-03-17T05:31:13;95038.22;;;21.40;33.58
43217;BME280;71549;42.686;23.300;2024-03-17T05:33:18;95041.34;;;21.42;33.47
43217;BME280;71549;42.686;23.300;2024-03-17T05:35:22;95041.34;;;21.42;33.56
43217;BME280;71549;42.686;23.300;2024-03-17T05:37:25;95039.78;;;21.41;33.77
43217;BME280;71549;42.686;23.300;2024-03-17T05:39:29;95046.75;;;21.42;33.57
43217;BME280;71549;42.686;23.300;2024-03-17T05:41:31;95039.47;;;21.42;33.67
43217;BME280;71549;42.686;23.300;2024-03-17T05:43:33;94894.94;;;20.50;33.58
43217;BME280;71549;42.686;23.300;2024-03-17T05:45:36;95035.19;;;21.41;33.54
43217;BME280;71549;42.686;23.300;2024-03-17T05:47:37;95037.56;;;21.43;33.63
43217;BME280;71549;42.686;23.300;2024-03-17T05:49:39;95039.47;;;21.42;33.61
43217;BME280;71549;42.686;23.300;2024-03-17T05:51:42;95032.19;;;21.43;33.62
43217;BME280;71549;42.686;23.300;2024-03-17T05:53:44;95026.31;;;21.41;33.48
43217;BME280;71549;42.686;23.300;2024-03-17T05:55:48;95033.78;;;21.44;33.59
43217;BME280;71549;42.686;23.300;2024-03-17T05:57:50;95035.69;;;21.43;33.75
43217;BME280;71549;42.686;23.300;2024-03-17T05:59:51;95031.06;;;21.44;33.71
43217;BME280;71549;42.686;23.300;2024-03-17T06:01:53;95034.53;;;21.44;33.66
43217;BME280;71549;42.686;23.300;2024-03-17T06:03:54;95038.84;;;21.45;33.68
43217;BME280;71549;42.686;23.300;2024-03-17T06:05:58;95031.69;;;21.41;33.30
43217;BME280;71549;42.686;23.300;2024-03-17T06:08:01;95037.25;;;21.44;33.63
43217;BME280;71549;42.686;23.300;2024-03-17T06:10:03;95039.78;;;21.41;33.54
43217;BME280;71549;42.686;23.300;2024-03-17T06:12:07;95045.47;;;21.48;33.57
43217;BME280;71549;42.686;23.300;2024-03-17T06:14:09;95045.78;;;21.46;33.39
43217;BME280;71549;42.686;23.300;2024-03-17T06:16:13;95053.84;;;21.46;33.19
43217;BME280;71549;42.686;23.300;2024-03-17T06:18:15;95051.94;;;21.47;33.53
43217;BME280;71549;42.686;23.300;2024-03-17T06:20:18;95011.41;;;21.22;33.58
43217;BME280;71549;42.686;23.300;2024-03-17T06:22:19;95050.84;;;21.48;33.39
43217;BME280;71549;42.686;23.300;2024-03-17T06:24:21;95054.31;;;21.49;33.34
43217;BME280;71549;42.686;23.300;2024-03-17T06:26:24;95052.41;;;21.49;33.30
43217;BME280;71549;42.686;23.300;2024-03-17T06:28:28;94939.25;;;20.74;33.15
43217;BME280;71549;42.686;23.300;2024-03-17T06:30:30;95050.38;;;21.46;33.13
43217;BME280;71549;42.686;23.300;2024-03-17T06:32:33;95058.59;;;21.50;33.32
43217;BME280;71549;42.686;23.300;2024-03-17T06:34:35;95054.78;;;21.51;33.08
43217;BME280;71549;42.686;23.300;2024-03-17T06:36:37;95061.75;;;21.52;32.89
43217;BME280;71549;42.686;23.300;2024-03-17T06:38:39;95065.22;;;21.52;33.10
43217;BME280;71549;42.686;23.300;2024-03-17T06:40:41;95062.84;;;21.51;33.07
43217;BME280;71549;42.686;23.300;2024-03-17T06:42:43;95067.25;;;21.55;33.28
43217;BME280;71549;42.686;23.300;2024-03-17T06:44:46;95071.06;;;21.54;33.21
43217;BME280;71549;42.686;23.300;2024-03-17T06:46:48;95069.16;;;21.55;33.16
43217;BME280;71549;42.686;23.300;2024-03-17T06:48:50;95068.38;;;21.54;33.22
43217;BME280;71549;42.686;23.300;2024-03-17T06:50:54;95069.16;;;21.55;32.93
43217;BME280;71549;42.686;23.300;2024-03-17T06:52:56;95069.63;;;21.57;33.29
43217;BME280;71549;42.686;23.300;2024-03-17T06:54:58;95073.44;;;21.56;33.23
43217;BME280;71549;42.686;23.300;2024-03-17T06:57:01;95071.22;;;21.58;33.21
43217;BME280;71549;42.686;23.300;2024-03-17T06:59:03;95066.34;;;21.51;32.87
43217;BME280;71549;42.686;23.300;2024-03-17T07:01:08;95076.25;;;21.59;33.21
43217;BME280;71549;42.686;23.300;2024-03-17T07:03:11;95064.69;;;21.59;32.92
43217;BME280;71549;42.686;23.300;2024-03-17T07:05:13;95008.16;;;21.17;33.17
43217;BME280;71549;42.686;23.300;2024-03-17T07:07:16;95063.00;;;21.54;33.33
43217;BME280;71549;42.686;23.300;2024-03-17T07:09:18;95078.16;;;21.59;32.89
43217;BME280;71549;42.686;23.300;2024-03-17T07:11:20;95076.25;;;21.59;33.07
43217;BME280;71549;42.686;23.300;2024-03-17T07:13:42;95071.66;;;21.60;33.07
43217;BME280;71549;42.686;23.300;2024-03-17T07:15:46;95079.41;;;21.61;33.18
43217;BME280;71549;42.686;23.300;2024-03-17T07:17:51;95062.84;;;21.51;33.08
43217;BME280;71549;42.686;23.300;2024-03-17T07:19:53;95075.59;;;21.62;32.94
43217;BME280;71549;42.686;23.300;2024-03-17T07:21:55;95070.22;;;21.62;33.20
43217;BME280;71549;42.686;23.300;2024-03-17T07:23:57;95060.75;;;21.56;33.01
43217;BME280;71549;42.686;23.300;2024-03-17T07:26:01;95075.28;;;21.64;32.81
43217;BME280;71549;42.686;23.300;2024-03-17T07:28:03;95074.16;;;21.65;32.81
43217;BME280;71549;42.686;23.300;2024-03-17T07:30:06;95060.44;;;21.58;32.86
43217;BME280;71549;42.686;23.300;2024-03-17T07:32:09;95074.47;;;21.63;33.16
43217;BME280;71549;42.686;23.300;2024-03-17T07:34:12;95076.06;;;21.64;33.05
43217;BME280;71549;42.686;23.300;2024-03-17T07:36:14;95079.84;;;21.63;32.85
43217;BME280;71549;42.686;23.300;2024-03-17T07:38:16;95074.16;;;21.65;32.80
43217;BME280;71549;42.686;23.300;2024-03-17T07:40:18;95077.63;;;21.65;33.09
43217;BME280;71549;42.686;23.300;2024-03-17T07:42:20;95074.94;;;21.65;33.09
43217;BME280;71549;42.686;23.300;2024-03-17T07:44:21;95069.88;;;21.64;32.94
43217;BME280;71549;42.686;23.300;2024-03-17T07:46:23;95075.84;;;21.70;33.04
43217;BME280;71549;42.686;23.300;2024-03-17T07:48:25;95081.22;;;21.70;33.08
43217;BME280;71549;42.686;23.300;2024-03-17T07:50:27;95083.59;;;21.71;32.66
43217;BME280;71549;42.686;23.300;2024-03-17T07:52:30;95043.88;;;21.47;32.99
43217;BME280;71549;42.686;23.300;2024-03-17T07:54:31;95006.03;;;21.22;32.79
43217;BME280;71549;42.686;23.300;2024-03-17T07:56:35;95075.84;;;21.70;32.92
43217;BME280;71549;42.686;23.300;2024-03-17T07:58:39;95078.22;;;21.71;33.05
43217;BME280;71549;42.686;23.300;2024-03-17T08:00:41;95078.22;;;21.71;33.00
43217;BME280;71549;42.686;23.300;2024-03-17T08:02:44;95078.22;;;21.71;33.05
43217;BME280;71549;42.686;23.300;2024-03-17T08:04:47;95079.81;;;21.72;32.73
43217;BME280;71549;42.686;23.300;2024-03-17T08:06:50;95075.19;;;21.73;32.90
43217;BME280;71549;42.686;23.300;2024-03-17T08:08:52;95076.75;;;21.74;32.97
43217;BME280;71549;42.686;23.300;2024-03-17T08:10:55;95081.38;;;21.73;33.04
43217;BME280;71549;42.686;23.300;2024-03-17T08:12:57;95078.22;;;21.71;32.85
43217;BME280;71549;42.686;23.300;2024-03-17T08:14:59;95075.84;;;21.70;32.91
43217;BME280;71549;42.686;23.300;2024-03-17T08:17:01;95075.84;;;21.70;33.17
43217;BME280;71549;42.686;23.300;2024-03-17T08:19:03;95077.75;;;21.69;33.20
43217;BME280;71549;42.686;23.300;2024-03-17T08:21:07;95072.38;;;21.69;33.11
43217;BME280;71549;42.686;23.300;2024-03-17T08:23:11;95068.91;;;21.69;33.11
43217;BME280;71549;42.686;23.300;2024-03-17T08:25:13;95076.97;;;21.69;33.22
43217;BME280;71549;42.686;23.300;2024-03-17T08:27:15;95070.81;;;21.68;32.79
43217;BME280;71549;42.686;23.300;2024-03-17T08:29:17;95066.19;;;21.69;32.75
43217;BME280;71549;42.686;23.300;2024-03-17T08:31:19;95059.91;;;21.64;32.82
43217;BME280;71549;42.686;23.300;2024-03-17T08:33:21;95068.56;;;21.70;32.99
43217;BME280;71549;42.686;23.300;2024-03-17T08:35:24;95068.22;;;21.72;32.87
43217;BME280;71549;42.686;23.300;2024-03-17T08:37:26;95065.53;;;21.72;32.70
43217;BME280;71549;42.686;23.300;2024-03-17T08:39:30;95068.69;;;21.74;32.54
43217;BME280;71549;42.686;23.300;2024-03-17T08:41:32;95069.94;;;21.76;32.84
43217;BME280;71549;42.686;23.300;2024-03-17T08:43:34;95061.50;;;21.78;32.65
43217;BME280;71549;42.686;23.300;2024-03-17T08:45:36;95064.66;;;21.80;32.62
43217;BME280;71549;42.686;23.300;2024-03-17T08:47:37;95056.56;;;21.80;32.76
43217;BME280;71549;42.686;23.300;2024-03-17T08:49:39;95052.66;;;21.77;32.79
43217;BME280;71549;42.686;23.300;2024-03-17T08:51:41;95048.03;;;21.78;32.78
43217;BME280;71549;42.686;23.300;2024-03-17T08:53:43;94974.78;;;21.30;32.48
43217;BME280;71549;42.686;23.300;2024-03-17T08:55:47;95046.25;;;21.82;32.54
43217;BME280;71549;42.686;23.300;2024-03-17T08:57:48;95042.44;;;21.83;32.52
43217;BME280;71549;42.686;23.300;2024-03-17T08:59:50;95024.78;;;21.73;32.97
43217;BME280;71549;42.686;23.300;2024-03-17T09:01:53;95042.22;;;21.88;32.43
43217;BME280;71549;42.686;23.300;2024-03-17T09:03:55;95037.19;;;21.86;32.75
43217;BME280;71549;42.686;23.300;2024-03-17T09:06:02;95031.00;;;21.86;32.66
43217;BME280;71549;42.686;23.300;2024-03-17T09:08:04;95039.06;;;21.86;32.38
43217;BME280;71549;42.686;23.300;2024-03-17T09:10:06;95025.06;;;21.80;32.59
43217;BME280;71549;42.686;23.300;2024-03-17T09:12:10;95034.81;;;21.85;32.33
43217;BME280;71549;42.686;23.300;2024-03-17T09:14:12;95027.53;;;21.85;32.32
43217;BME280;71549;42.686;23.300;2024-03-17T09:16:14;95025.59;;;21.86;32.77
43217;BME280;71549;42.686;23.300;2024-03-17T09:18:19;95024.81;;;21.85;32.42
43217;BME280;71549;42.686;23.300;2024-03-17T09:20:20;95022.13;;;21.85;32.36
43217;BME280;71549;42.686;23.300;2024-03-17T09:22:22;95015.06;;;21.81;32.38
43217;BME280;71549;42.686;23.300;2024-03-17T09:24:24;95012.81;;;21.83;32.62
43217;BME280;71549;42.686;23.300;2024-03-17T09:26:26;95007.88;;;21.85;32.72
43217;BME280;71549;42.686;23.300;2024-03-17T09:28:31;95011.03;;;21.87;32.73
43217;BME280;71549;42.686;23.300;2024-03-17T09:30:33;95013.84;;;21.91;32.36
43217;BME280;71549;42.686;23.300;2024-03-17T09:32:36;95008.34;;;21.87;32.60
43217;BME280;71549;42.686;23.300;2024-03-17T09:34:37;95006.69;;;21.95;32.67
43217;BME280;71549;42.686;23.300;2024-03-17T09:36:39;95010.34;;;21.90;32.77
43217;BME280;71549;42.686;23.300;2024-03-17T09:38:41;95003.06;;;21.91;32.42
43217;BME280;71549;42.686;23.300;2024-03-17T09:40:45;94999.25;;;21.92;32.62
43217;BME280;71549;42.686;23.300;2024-03-17T09:42:48;95001.16;;;21.91;32.63
43217;BME280;71549;42.686;23.300;2024-03-17T09:44:52;95000.47;;;21.94;32.40
43217;BME280;71549;42.686;23.300;2024-03-17T09:46:57;94997.31;;;21.92;32.57
43217;BME280;71549;42.686;23.300;2024-03-17T09:49:01;94994.56;;;22.01;32.18
43217;BME280;71549;42.686;23.300;2024-03-17T09:51:04;94997.44;;;21.96;32.29
43217;BME280;71549;42.686;23.300;2024-03-17T09:53:06;95000.28;;;21.99;32.59
43217;BME280;71549;42.686;23.300;2024-03-17T09:55:16;94889.78;;;21.41;32.39
43217;BME280;71549;42.686;23.300;2024-03-17T09:57:18;94990.16;;;22.08;32.21
43217;BME280;71549;42.686;23.300;2024-03-17T09:59:22;94998.25;;;22.08;32.33
43217;BME280;71549;42.686;23.300;2024-03-17T10:01:26;94999.59;;;22.02;32.19
43217;BME280;71549;42.686;23.300;2024-03-17T10:03:40;94993.09;;;22.03;32.28
43217;BME280;71549;42.686;23.300;2024-03-17T10:05:42;94995.91;;;22.07;32.38
43217;BME280;71549;42.686;23.300;2024-03-17T10:07:44;94994.44;;;22.10;32.34
43217;BME280;71549;42.686;23.300;2024-03-17T10:09:46;95000.28;;;22.12;32.31
43217;BME280;71549;42.686;23.300;2024-03-17T10:11:48;94996.00;;;22.11;32.20
43217;BME280;71549;42.686;23.300;2024-03-17T10:13:59;94994.91;;;22.12;31.96
43217;BME280;71549;42.686;23.300;2024-03-17T10:16:02;94995.69;;;22.12;32.34
43217;BME280;71549;42.686;23.300;2024-03-17T10:18:20;95004.22;;;22.14;32.03
43217;BME280;71549;42.686;23.300;2024-03-17T10:20:24;95001.41;;;22.11;31.97
43217;BME280;71549;42.686;23.300;2024-03-17T10:22:27;95002.66;;;22.13;32.07
43217;BME280;71549;42.686;23.300;2024-03-17T10:24:29;95002.53;;;22.10;31.98
43217;BME280;71549;42.686;23.300;2024-03-17T10:26:32;95002.22;;;22.11;31.93
43217;BME280;71549;42.686;23.300;2024-03-17T10:28:34;94997.38;;;22.17;32.04
43217;BME280;71549;42.686;23.300;2024-03-17T10:30:36;94984.44;;;22.10;31.79
43217;BME280;71549;42.686;23.300;2024-03-17T10:32:39;94992.88;;;22.21;31.61
43217;BME280;71549;42.686;23.300;2024-03-17T10:34:42;94998.28;;;22.21;31.60
43217;BME280;71549;42.686;23.300;2024-03-17T10:36:45;94997.94;;;22.22;31.66
43217;BME280;71549;42.686;23.300;2024-03-17T10:38:51;94997.16;;;22.22;31.95
43217;BME280;71549;42.686;23.300;2024-03-17T10:40:55;94908.25;;;21.64;31.87